Forside
METAR-TAF:

METAR-TAF

Lufthavne :

Detroit, Michigan, USA

Breddekreds: 42-13-53N, længdekreds: 083-19-51W, højde: 194 m

Aktuelle vejr

Denne rapport blev lavet for 20 minutter siden, kl. 12:53 UTC
Vind 5 kt fra nord
Temperatur 4°C
Fugtighed 81%
Tryk 1017 hPa
Sigt: 16.1 km
Overskyet i en højde af 1200 ft

METAR: KDTW 311253Z COR 01005KT 10SM OVC012 04/01 A3003 RMK AO2 SLP174 T00440011

Tid: 09:13 (13:13 UTC)

Vejrudsigter

Denne rapport blev lavet for 1 time og 53 minutter siden, kl. 11:20 UTC
Foreløbig gælder fra 31 på 12 UTC til 01 på 18 UTC
Vind 7 kt fra nord
Sigt: 10 km
Overskyet i en højde af 1200 ft
Fra 31 på 2000 UTC
Vind 7 kt fra nordnordøst
Sigt: 10 km
Brudte skyer i en højde af 2200 ft
Overskyet i en højde af 3500 ft
Fra 01 på 0200 UTC
Vind 6 kt fra nordnordøst
Sigt: 10 km
Overskyet i en højde af 1500 ft

TAF: KDTW 311120Z 3112/0118 01007KT P6SM OVC012 FM312000 02007KT P6SM BKN022 OVC035 FM010200 03006KT P6SM OVC015

Vejrobservationer og prognoser fra mere end 4000 lufthavne (METAR og TAF).

De gule og røde prikker repræsenterer de meteorologiske stationer.

Flyt musen over at se navnet på stationen.

Så klik over at se vejr observationer og prognoser.

At skifte det kort: Klik på de grønne knapper med et sort kors for at zoome ind; på den grønne knap med en bindestreg for at zoome ud; eller på de grønne pile for tilstødende kort.


METAR-TAF: